createdAt,value
2019-05-26T00:02:11.197Z,5.83
2019-05-26T00:04:37.443Z,6.10
2019-05-26T00:07:03.669Z,6.00
2019-05-26T00:09:31.712Z,8.47
2019-05-26T00:11:57.960Z,5.73
2019-05-26T00:14:24.223Z,9.30
2019-05-26T00:16:50.455Z,6.00
2019-05-26T00:19:16.702Z,8.90
2019-05-26T00:21:42.938Z,6.17
2019-05-26T00:24:09.176Z,5.30
2019-05-26T00:26:35.404Z,5.63
2019-05-26T00:29:01.648Z,7.07
2019-05-26T00:31:27.893Z,3.80
2019-05-26T00:33:54.115Z,7.10
2019-05-26T00:36:20.358Z,7.37
2019-05-26T00:38:46.582Z,6.23
2019-05-26T00:41:12.823Z,6.77
2019-05-26T00:43:39.064Z,6.53
2019-05-26T00:46:05.335Z,7.30
2019-05-26T00:48:31.585Z,8.53
2019-05-26T00:50:58.008Z,6.90
2019-05-26T00:53:24.204Z,5.53
2019-05-26T00:55:50.457Z,7.53
2019-05-26T00:58:16.716Z,10.13
2019-05-26T01:00:43.136Z,7.17
2019-05-26T01:03:09.879Z,9.47
2019-05-26T01:05:36.417Z,8.30
2019-05-26T01:08:06.667Z,6.33
2019-05-26T01:10:32.806Z,4.63
2019-05-26T01:12:59.041Z,5.90
2019-05-26T01:15:25.291Z,5.57
2019-05-26T01:17:51.537Z,4.40
2019-05-26T01:20:17.777Z,3.83
2019-05-26T01:22:44.028Z,5.27
2019-05-26T01:25:10.260Z,7.30
2019-05-26T01:27:36.501Z,4.00
2019-05-26T01:30:05.041Z,3.33
2019-05-26T01:32:31.293Z,3.40
2019-05-26T01:34:57.512Z,2.93
2019-05-26T01:37:23.957Z,3.03
2019-05-26T01:39:50.183Z,6.03
2019-05-26T01:42:16.419Z,4.67
2019-05-26T01:44:42.657Z,5.83
2019-05-26T01:47:08.899Z,5.00
2019-05-26T01:49:35.123Z,4.00
2019-05-26T01:52:01.369Z,3.20
2019-05-26T01:54:27.608Z,3.00
2019-05-26T01:56:53.851Z,2.60
2019-05-26T01:59:20.087Z,3.67
2019-05-26T02:01:46.327Z,4.17
2019-05-26T02:04:12.574Z,2.50
2019-05-26T02:06:38.806Z,2.10
2019-05-26T02:09:06.852Z,2.90
2019-05-26T02:11:33.129Z,2.53
2019-05-26T02:13:59.429Z,2.53
2019-05-26T02:16:25.669Z,2.53
2019-05-26T02:18:51.909Z,3.10
2019-05-26T02:21:18.138Z,2.10
2019-05-26T02:23:44.387Z,1.73
2019-05-26T02:26:10.636Z,3.10
2019-05-26T02:28:36.887Z,3.00
2019-05-26T02:31:03.111Z,2.27
2019-05-26T02:33:29.359Z,2.23
2019-05-26T02:35:55.603Z,2.10
2019-05-26T02:38:25.932Z,2.70
2019-05-26T02:40:50.019Z,2.60
2019-05-26T02:43:16.299Z,2.90
2019-05-26T02:45:42.522Z,2.37
2019-05-26T02:48:08.769Z,2.80
2019-05-26T02:50:35.017Z,2.17
2019-05-26T02:53:01.266Z,2.10
2019-05-26T02:55:27.506Z,2.13
2019-05-26T02:57:53.727Z,2.53
2019-05-26T03:00:41.351Z,2.50
2019-05-26T03:03:08.002Z,2.03
2019-05-26T03:05:34.257Z,1.63
2019-05-26T03:08:01.692Z,1.97
2019-05-26T03:10:29.436Z,1.53
2019-05-26T03:12:57.063Z,1.60
2019-05-26T03:15:23.314Z,1.90
2019-05-26T03:17:52.849Z,2.07
2019-05-26T03:20:19.200Z,2.47
2019-05-26T03:22:47.732Z,2.53
2019-05-26T03:25:14.022Z,2.10
2019-05-26T03:27:40.222Z,2.50
2019-05-26T03:30:06.894Z,2.20
2019-05-26T03:32:33.125Z,2.87
2019-05-26T03:34:59.386Z,2.57
2019-05-26T03:37:25.619Z,3.30
2019-05-26T03:39:51.873Z,4.00
2019-05-26T03:42:18.120Z,3.53
2019-05-26T03:44:44.352Z,3.43
2019-05-26T03:47:10.591Z,2.97
2019-05-26T03:49:36.831Z,3.10
2019-05-26T03:52:03.379Z,3.23
2019-05-26T03:54:29.606Z,3.13
2019-05-26T03:56:55.866Z,2.77
2019-05-26T03:59:22.086Z,3.03
2019-05-26T04:01:48.332Z,3.60
2019-05-26T04:04:14.577Z,3.47
2019-05-26T04:06:40.830Z,3.67
2019-05-26T04:09:07.356Z,3.67
2019-05-26T04:11:33.588Z,3.70
2019-05-26T04:13:59.821Z,2.73
2019-05-26T04:16:26.059Z,2.70
2019-05-26T04:18:52.295Z,2.63
2019-05-26T04:21:18.538Z,2.30
2019-05-26T04:23:44.774Z,2.23
2019-05-26T04:26:11.031Z,2.67
2019-05-26T04:28:37.275Z,2.30
2019-05-26T04:31:03.507Z,2.17
2019-05-26T04:33:29.749Z,2.43
2019-05-26T04:35:55.973Z,2.43
2019-05-26T04:38:22.222Z,2.00
2019-05-26T04:40:48.463Z,2.17
2019-05-26T04:43:15.304Z,2.03
2019-05-26T04:45:41.670Z,2.07
2019-05-26T04:48:07.945Z,2.10
2019-05-26T04:50:34.162Z,1.73
2019-05-26T04:53:06.960Z,1.80
2019-05-26T04:55:28.536Z,1.43
2019-05-26T04:57:54.775Z,1.50
2019-05-26T05:00:21.106Z,1.40
2019-05-26T05:02:47.343Z,1.77
2019-05-26T05:05:13.589Z,1.50
2019-05-26T05:07:39.832Z,1.40
2019-05-26T05:10:06.257Z,0.90
2019-05-26T05:12:32.508Z,1.43
2019-05-26T05:14:58.756Z,1.40
2019-05-26T05:17:24.985Z,1.10
2019-05-26T05:19:51.295Z,1.30
2019-05-26T05:22:17.564Z,1.03
2019-05-26T05:24:43.822Z,1.17
2019-05-26T05:27:10.064Z,1.10
2019-05-26T05:29:36.301Z,1.00
2019-05-26T05:32:02.633Z,1.23
2019-05-26T05:34:31.577Z,1.00
2019-05-26T05:36:57.684Z,1.10
2019-05-26T05:39:23.934Z,0.70
2019-05-26T05:41:50.151Z,0.70
2019-05-26T05:44:16.401Z,0.43
2019-05-26T05:46:42.649Z,0.30
2019-05-26T05:49:08.899Z,0.20
2019-05-26T05:51:35.144Z,0.30
2019-05-26T05:54:01.400Z,0.30
2019-05-26T05:56:27.640Z,0.40
2019-05-26T05:58:53.881Z,0.30
2019-05-26T06:01:20.112Z,0.37
2019-05-26T06:03:46.360Z,0.30
2019-05-26T06:06:12.611Z,0.30
2019-05-26T06:08:38.841Z,0.37
2019-05-26T06:11:15.918Z,0.30
2019-05-26T06:13:33.225Z,0.77
2019-05-26T06:15:59.467Z,0.63
2019-05-26T06:18:25.697Z,0.67
2019-05-26T06:20:51.935Z,0.63
2019-05-26T06:23:18.175Z,0.63
2019-05-26T06:25:44.431Z,0.87
2019-05-26T06:28:10.675Z,0.57
2019-05-26T06:30:36.920Z,0.80
2019-05-26T06:33:03.265Z,0.60
2019-05-26T06:35:32.601Z,0.80
2019-05-26T06:37:57.668Z,0.80
2019-05-26T06:40:23.923Z,0.60
2019-05-26T06:42:50.158Z,0.90
2019-05-26T06:45:17.002Z,0.70
2019-05-26T06:47:43.273Z,0.70
2019-05-26T06:50:09.820Z,0.80
2019-05-26T06:52:36.057Z,0.70
2019-05-26T06:55:03.397Z,0.60
2019-05-26T06:57:29.678Z,0.50
2019-05-26T06:59:55.914Z,1.00
2019-05-26T07:02:22.169Z,0.70
2019-05-26T07:04:48.451Z,0.73
2019-05-26T07:07:14.711Z,0.80
2019-05-26T07:09:40.970Z,0.80
2019-05-26T07:12:07.228Z,0.60
2019-05-26T07:14:33.472Z,0.63
2019-05-26T07:17:01.783Z,0.60
2019-05-26T07:19:28.104Z,0.70
2019-05-26T07:21:54.351Z,0.80
2019-05-26T07:24:20.603Z,0.70
2019-05-26T07:26:46.857Z,0.60
2019-05-26T07:29:13.099Z,0.80
2019-05-26T07:31:39.355Z,0.87
2019-05-26T07:34:05.599Z,0.70
2019-05-26T07:36:31.854Z,0.60
2019-05-26T07:38:58.091Z,0.80
2019-05-26T07:41:24.363Z,0.90
2019-05-26T07:43:50.687Z,0.90
2019-05-26T07:46:16.938Z,0.77
2019-05-26T07:48:43.232Z,0.80
2019-05-26T07:51:09.462Z,0.70
2019-05-26T07:53:35.724Z,0.70
2019-05-26T07:56:01.963Z,1.03
2019-05-26T07:58:28.247Z,1.00
2019-05-26T08:00:54.485Z,1.00
2019-05-26T08:03:20.725Z,1.10
2019-05-26T08:05:46.979Z,1.10
2019-05-26T08:08:13.742Z,1.00
2019-05-26T08:10:40.196Z,0.90
2019-05-26T08:13:06.456Z,0.90
2019-05-26T08:15:32.695Z,1.00
2019-05-26T08:17:58.949Z,1.20
2019-05-26T08:20:25.790Z,1.20
2019-05-26T08:22:52.028Z,1.33
2019-05-26T08:25:18.274Z,1.00
2019-05-26T08:27:44.723Z,1.10
2019-05-26T08:30:11.164Z,1.20
2019-05-26T08:32:37.479Z,1.27
2019-05-26T08:35:05.534Z,1.53
2019-05-26T08:37:31.853Z,1.23
2019-05-26T08:39:59.952Z,1.40
2019-05-26T08:42:31.913Z,1.77
2019-05-26T08:44:54.336Z,1.57
2019-05-26T08:47:20.580Z,1.67
2019-05-26T08:49:46.853Z,1.20
2019-05-26T08:52:13.090Z,1.50
2019-05-26T08:54:39.703Z,1.40
2019-05-26T08:57:05.937Z,1.50
2019-05-26T08:59:32.190Z,1.60
2019-05-26T09:01:58.423Z,1.60
2019-05-26T09:04:24.682Z,1.33
2019-05-26T09:06:50.938Z,1.40
2019-05-26T09:09:17.191Z,1.63
2019-05-26T09:11:43.440Z,1.40
2019-05-26T09:14:09.692Z,1.67
2019-05-26T09:16:35.944Z,1.33
2019-05-26T09:19:02.214Z,1.50
2019-05-26T09:21:28.452Z,1.30
2019-05-26T09:23:54.693Z,1.10
2019-05-26T09:26:20.958Z,1.10
2019-05-26T09:28:47.200Z,0.83
2019-05-26T09:31:13.449Z,0.93
2019-05-26T09:33:39.696Z,1.27
2019-05-26T09:36:05.946Z,1.07
2019-05-26T09:38:32.191Z,1.00
2019-05-26T09:40:58.433Z,1.10
2019-05-26T09:43:24.663Z,0.90
2019-05-26T09:45:50.926Z,0.97
2019-05-26T09:48:17.181Z,0.80
2019-05-26T09:50:43.423Z,0.73
2019-05-26T09:53:09.654Z,0.73
2019-05-26T09:55:35.914Z,0.90
2019-05-26T09:58:02.170Z,1.00
2019-05-26T10:00:28.427Z,0.80
2019-05-26T10:02:54.720Z,0.77
2019-05-26T10:05:21.084Z,0.90
2019-05-26T10:07:47.337Z,0.97
2019-05-26T10:10:13.805Z,1.00
2019-05-26T10:12:40.081Z,0.90
2019-05-26T10:15:08.126Z,1.00
2019-05-26T10:17:34.376Z,0.90
2019-05-26T10:20:00.611Z,1.17
2019-05-26T10:22:26.864Z,1.17
2019-05-26T10:24:53.405Z,1.20
2019-05-26T10:27:19.669Z,0.90
2019-05-26T10:29:45.917Z,1.00
2019-05-26T10:32:12.179Z,1.00
2019-05-26T10:34:38.445Z,1.10
2019-05-26T10:37:04.719Z,0.93
2019-05-26T10:39:30.972Z,0.80
2019-05-26T10:41:57.340Z,0.77
2019-05-26T10:44:23.568Z,1.10
2019-05-26T10:46:49.822Z,1.20
2019-05-26T10:49:16.060Z,1.20
2019-05-26T10:51:42.318Z,1.30
2019-05-26T10:54:08.551Z,1.23
2019-05-26T10:56:34.829Z,1.30
2019-05-26T10:59:01.102Z,1.60
2019-05-26T11:01:27.343Z,1.37
2019-05-26T11:03:53.609Z,1.50
2019-05-26T11:06:19.853Z,2.70
2019-05-26T11:08:46.124Z,1.93
2019-05-26T11:11:12.390Z,1.73
2019-05-26T11:13:40.755Z,1.60
2019-05-26T11:16:06.794Z,1.60
2019-05-26T11:18:33.046Z,1.53
2019-05-26T11:20:59.281Z,1.70
2019-05-26T11:23:25.532Z,1.40
2019-05-26T11:25:51.764Z,1.60
2019-05-26T11:28:18.007Z,1.77
2019-05-26T11:30:44.238Z,1.53
2019-05-26T11:33:10.496Z,1.60
2019-05-26T11:35:36.726Z,1.23
2019-05-26T11:38:03.487Z,1.60
2019-05-26T11:40:29.747Z,1.60
2019-05-26T11:42:56.035Z,1.57
2019-05-26T11:45:22.312Z,1.70
2019-05-26T11:47:48.554Z,1.80
2019-05-26T11:50:15.498Z,1.50
2019-05-26T11:52:41.729Z,1.70
2019-05-26T11:55:08.586Z,1.40
2019-05-26T11:57:36.947Z,1.60
2019-05-26T12:00:07.358Z,1.70
2019-05-26T12:02:33.740Z,1.50
2019-05-26T12:04:59.980Z,1.50
2019-05-26T12:07:26.238Z,1.33
2019-05-26T12:09:52.490Z,1.40
2019-05-26T12:12:18.719Z,1.93
2019-05-26T12:14:44.970Z,1.70
2019-05-26T12:17:11.217Z,1.70
2019-05-26T12:19:37.463Z,1.47
2019-05-26T12:22:03.827Z,1.70
2019-05-26T12:24:30.072Z,1.50
2019-05-26T12:26:56.316Z,1.73
2019-05-26T12:29:22.560Z,1.70
2019-05-26T12:31:48.795Z,1.60
2019-05-26T12:34:15.045Z,1.53
2019-05-26T12:36:41.288Z,1.60
2019-05-26T12:39:08.023Z,1.70
2019-05-26T12:41:37.209Z,1.70
2019-05-26T12:44:03.321Z,1.50
2019-05-26T12:46:29.551Z,1.60
2019-05-26T12:48:55.791Z,1.60
2019-05-26T12:51:22.041Z,1.33
2019-05-26T12:53:48.280Z,1.67
2019-05-26T12:56:14.526Z,1.40
2019-05-26T12:58:40.758Z,1.70
2019-05-26T13:01:07.033Z,1.20
2019-05-26T13:03:33.239Z,1.57
2019-05-26T13:05:59.487Z,1.50
2019-05-26T13:08:25.734Z,1.23
2019-05-26T13:10:52.009Z,1.90
2019-05-26T13:13:18.353Z,1.77
2019-05-26T13:15:44.734Z,1.97
2019-05-26T13:18:11.000Z,1.57
2019-05-26T13:20:37.268Z,1.90
2019-05-26T13:23:03.503Z,1.80
2019-05-26T13:25:29.765Z,1.63
2019-05-26T13:27:56.003Z,1.70
2019-05-26T13:30:24.019Z,1.70
2019-05-26T13:32:50.315Z,1.50
2019-05-26T13:35:17.163Z,1.63
2019-05-26T13:37:43.387Z,1.73
2019-05-26T13:40:09.926Z,1.50
2019-05-26T13:42:36.165Z,1.73
2019-05-26T13:45:20.781Z,1.90
2019-05-26T13:47:33.960Z,1.47
2019-05-26T13:50:00.199Z,1.60
2019-05-26T13:52:26.693Z,1.50
2019-05-26T13:54:52.926Z,1.93
2019-05-26T13:57:19.166Z,1.70
2019-05-26T13:59:45.398Z,1.70
2019-05-26T14:02:11.652Z,1.50
2019-05-26T14:04:37.877Z,1.60
2019-05-26T14:07:04.431Z,1.50
2019-05-26T14:09:30.688Z,1.47
2019-05-26T14:11:56.928Z,1.80
2019-05-26T14:14:23.169Z,1.47
2019-05-26T14:16:50.899Z,1.50
2019-05-26T14:19:17.451Z,1.60
2019-05-26T14:21:43.675Z,1.67
2019-05-26T14:24:09.920Z,1.50
2019-05-26T14:26:36.156Z,1.60
2019-05-26T14:29:02.397Z,1.43
2019-05-26T14:31:28.630Z,1.50
2019-05-26T14:33:54.901Z,1.80
2019-05-26T14:36:21.144Z,1.60
2019-05-26T14:38:47.384Z,1.57
2019-05-26T14:41:13.614Z,1.30
2019-05-26T14:43:39.865Z,1.40
2019-05-26T14:46:06.098Z,1.40
2019-05-26T14:48:32.348Z,1.60
2019-05-26T14:50:58.890Z,1.60
2019-05-26T14:53:25.127Z,1.80
2019-05-26T14:55:51.364Z,1.80
2019-05-26T14:58:17.619Z,1.30
2019-05-26T15:00:43.868Z,1.60
2019-05-26T15:03:10.101Z,1.10
2019-05-26T15:05:36.338Z,1.53
2019-05-26T15:08:02.569Z,1.50
2019-05-26T15:10:28.842Z,1.30
2019-05-26T15:12:55.063Z,1.50
2019-05-26T15:15:21.321Z,1.40
2019-05-26T15:17:47.549Z,1.53
2019-05-26T15:20:13.918Z,1.47
2019-05-26T15:22:40.164Z,1.40
2019-05-26T15:25:06.700Z,1.53
2019-05-26T15:27:32.961Z,1.53
2019-05-26T15:29:59.183Z,1.37
2019-05-26T15:32:25.411Z,1.40
2019-05-26T15:34:51.661Z,1.40
2019-05-26T15:37:17.886Z,1.40
2019-05-26T15:39:44.136Z,1.27
2019-05-26T15:42:10.376Z,1.20
2019-05-26T15:44:36.626Z,1.77
2019-05-26T15:47:03.924Z,1.60
2019-05-26T15:49:30.208Z,1.70
2019-05-26T15:51:56.448Z,1.80
2019-05-26T15:54:22.694Z,2.00
2019-05-26T15:56:48.938Z,1.93
2019-05-26T15:59:15.170Z,2.00
2019-05-26T16:01:47.264Z,1.50
2019-05-26T16:04:13.544Z,1.73
2019-05-26T16:06:39.787Z,1.20
2019-05-26T16:09:06.330Z,1.60
2019-05-26T16:11:32.591Z,1.80
2019-05-26T16:13:58.856Z,1.43
2019-05-26T16:16:38.190Z,1.40
2019-05-26T16:18:53.235Z,1.50
2019-05-26T16:21:27.993Z,1.97
2019-05-26T16:23:47.607Z,1.60
2019-05-26T16:26:13.850Z,1.20
2019-05-26T16:28:40.100Z,1.87
2019-05-26T16:31:06.356Z,1.73
2019-05-26T16:33:32.601Z,2.43
2019-05-26T16:35:58.853Z,2.60
2019-05-26T16:38:25.103Z,1.97
2019-05-26T16:40:51.341Z,1.93
2019-05-26T16:43:17.570Z,1.73
2019-05-26T16:45:55.701Z,1.60
2019-05-26T16:48:11.936Z,1.60
2019-05-26T16:50:38.174Z,1.53
2019-05-26T16:53:04.423Z,1.90
2019-05-26T16:55:30.652Z,1.97
2019-05-26T16:57:56.890Z,1.50
2019-05-26T17:00:23.121Z,1.70
2019-05-26T17:02:49.392Z,1.93
2019-05-26T17:05:15.627Z,1.97
2019-05-26T17:07:41.877Z,1.80
2019-05-26T17:10:08.422Z,1.93
2019-05-26T17:12:34.663Z,1.70
2019-05-26T17:15:00.895Z,1.90
2019-05-26T17:17:27.137Z,1.90
2019-05-26T17:19:53.382Z,1.83
2019-05-26T17:22:19.617Z,1.90
2019-05-26T17:24:45.857Z,1.50
2019-05-26T17:27:12.103Z,1.80
2019-05-26T17:29:38.328Z,2.13
2019-05-26T17:32:04.573Z,1.80
2019-05-26T17:34:30.819Z,1.67
2019-05-26T17:36:57.042Z,1.90
2019-05-26T17:39:23.284Z,2.17
2019-05-26T17:41:49.517Z,2.10
2019-05-26T17:44:15.762Z,2.00
2019-05-26T17:46:41.989Z,1.97
2019-05-26T17:49:08.291Z,2.00
2019-05-26T17:51:34.517Z,1.87
2019-05-26T17:54:00.824Z,1.70
2019-05-26T17:56:27.085Z,2.10
2019-05-26T17:58:53.332Z,2.00
2019-05-26T18:01:19.567Z,1.93
2019-05-26T18:03:45.817Z,1.67
2019-05-26T18:06:12.058Z,1.60
2019-05-26T18:08:38.304Z,1.73
2019-05-26T18:11:04.555Z,2.20
2019-05-26T18:13:30.792Z,2.13
2019-05-26T18:15:57.019Z,2.00
2019-05-26T18:18:23.268Z,1.97
2019-05-26T18:20:49.519Z,1.90
2019-05-26T18:23:15.855Z,1.90
2019-05-26T18:25:42.102Z,2.23
2019-05-26T18:28:08.349Z,2.27
2019-05-26T18:30:34.619Z,1.80
2019-05-26T18:33:00.875Z,1.90
2019-05-26T18:35:27.162Z,1.90
2019-05-26T18:37:53.428Z,1.83
2019-05-26T18:40:19.690Z,2.17
2019-05-26T18:42:45.925Z,1.90
2019-05-26T18:45:12.525Z,2.00
2019-05-26T18:47:38.784Z,2.10
2019-05-26T18:50:05.560Z,2.03
2019-05-26T18:52:32.440Z,1.90
2019-05-26T18:54:58.710Z,2.17
2019-05-26T18:57:24.963Z,1.87
2019-05-26T18:59:51.232Z,2.07
2019-05-26T19:02:17.470Z,2.43
2019-05-26T19:04:43.716Z,2.27
2019-05-26T19:07:09.944Z,2.20
2019-05-26T19:09:36.181Z,2.20
2019-05-26T19:12:02.719Z,2.00
2019-05-26T19:14:28.993Z,2.40
2019-05-26T19:16:55.249Z,2.13
2019-05-26T19:19:21.485Z,2.40
2019-05-26T19:21:47.725Z,2.20
2019-05-26T19:24:13.995Z,2.30
2019-05-26T19:26:40.248Z,2.30
2019-05-26T19:29:06.499Z,2.20
2019-05-26T19:31:32.742Z,2.40
2019-05-26T19:33:59.014Z,2.33
2019-05-26T19:36:25.243Z,2.33
2019-05-26T19:38:51.498Z,2.50
2019-05-26T19:41:17.725Z,2.50
2019-05-26T19:43:43.976Z,2.57
2019-05-26T19:46:10.234Z,2.63
2019-05-26T19:48:37.397Z,2.73
2019-05-26T19:51:03.873Z,2.60
2019-05-26T19:53:30.135Z,2.90
2019-05-26T19:55:56.399Z,2.50
2019-05-26T19:58:22.640Z,2.60
2019-05-26T20:00:48.889Z,2.57
2019-05-26T20:03:15.453Z,3.10
2019-05-26T20:05:41.921Z,2.70
2019-05-26T20:08:08.173Z,3.30
2019-05-26T20:10:34.411Z,3.30
2019-05-26T20:13:00.657Z,2.77
2019-05-26T20:15:26.896Z,3.73
2019-05-26T20:17:53.145Z,3.50
2019-05-26T20:20:20.207Z,3.43
2019-05-26T20:22:46.418Z,2.97
2019-05-26T20:25:13.157Z,3.27
2019-05-26T20:27:39.394Z,3.23
2019-05-26T20:30:06.124Z,2.90
2019-05-26T20:32:32.531Z,3.00
2019-05-26T20:34:58.796Z,2.93
2019-05-26T20:37:25.046Z,3.30
2019-05-26T20:39:51.280Z,4.00
2019-05-26T20:42:17.521Z,3.23
2019-05-26T20:44:43.748Z,3.30
2019-05-26T20:47:10.006Z,3.50
2019-05-26T20:49:45.051Z,3.00
2019-05-26T20:52:04.696Z,3.63
2019-05-26T20:54:30.968Z,4.03
2019-05-26T20:56:57.205Z,3.60
2019-05-26T20:59:23.452Z,3.90
2019-05-26T21:01:49.684Z,3.37
2019-05-26T21:04:15.923Z,3.27
2019-05-26T21:06:42.151Z,3.30
2019-05-26T21:09:11.033Z,3.93
2019-05-26T21:11:36.537Z,3.23
2019-05-26T21:14:02.797Z,3.43
2019-05-26T21:16:29.041Z,3.30
2019-05-26T21:18:55.290Z,3.53
2019-05-26T21:21:21.515Z,3.40
2019-05-26T21:23:47.754Z,3.73
2019-05-26T21:26:13.973Z,4.03
2019-05-26T21:28:40.219Z,3.80
2019-05-26T21:31:06.449Z,3.67
2019-05-26T21:33:32.710Z,3.97
2019-05-26T21:35:58.958Z,3.47
2019-05-26T21:38:25.190Z,3.40
2019-05-26T21:40:51.461Z,3.63
2019-05-26T21:43:17.688Z,4.13
2019-05-26T21:45:43.927Z,4.30
2019-05-26T21:48:10.171Z,4.10
2019-05-26T21:50:36.396Z,3.80
2019-05-26T21:53:02.624Z,3.80
2019-05-26T21:55:28.868Z,3.90
2019-05-26T21:57:55.099Z,4.57
2019-05-26T22:00:26.377Z,3.70
2019-05-26T22:02:52.651Z,4.37
2019-05-26T22:05:18.943Z,4.93
2019-05-26T22:07:45.219Z,4.10
2019-05-26T22:10:11.865Z,4.53
2019-05-26T22:12:38.117Z,4.77
2019-05-26T22:15:06.623Z,3.73
2019-05-26T22:17:32.918Z,3.97
2019-05-26T22:19:59.238Z,3.67
2019-05-26T22:22:25.530Z,3.83
2019-05-26T22:24:51.860Z,4.27
2019-05-26T22:27:18.177Z,3.70
2019-05-26T22:29:44.471Z,4.00
2019-05-26T22:32:10.787Z,3.47
2019-05-26T22:34:37.104Z,3.83
2019-05-26T22:37:03.446Z,3.40
2019-05-26T22:39:29.724Z,3.60
2019-05-26T22:41:56.044Z,3.43
2019-05-26T22:44:22.345Z,4.17
2019-05-26T22:46:48.661Z,4.60
2019-05-26T22:49:14.956Z,5.80
2019-05-26T22:51:41.264Z,4.40
2019-05-26T22:54:07.558Z,4.50
2019-05-26T22:56:33.895Z,4.83
2019-05-26T22:59:00.201Z,3.83
2019-05-26T23:01:26.519Z,4.17
2019-05-26T23:03:52.811Z,4.87
2019-05-26T23:06:19.126Z,4.67
2019-05-26T23:08:45.425Z,4.30
2019-05-26T23:11:11.777Z,4.07
2019-05-26T23:13:38.075Z,4.43
2019-05-26T23:16:04.379Z,4.20
2019-05-26T23:18:30.693Z,4.60
2019-05-26T23:20:56.996Z,4.40
2019-05-26T23:23:23.326Z,3.97
2019-05-26T23:25:49.630Z,4.67
2019-05-26T23:28:15.927Z,4.87
2019-05-26T23:30:42.260Z,4.37
2019-05-26T23:33:08.612Z,4.23
2019-05-26T23:35:35.727Z,4.40
2019-05-26T23:38:02.027Z,4.80
2019-05-26T23:40:28.309Z,3.83
2019-05-26T23:42:54.608Z,3.97
2019-05-26T23:45:20.882Z,4.20
2019-05-26T23:47:47.174Z,4.50
2019-05-26T23:50:13.456Z,4.87
2019-05-26T23:52:39.753Z,4.57
2019-05-26T23:55:06.635Z,4.57
2019-05-26T23:57:32.944Z,4.80
2019-05-26T23:59:59.204Z,4.70
